createdAt,value
2018-02-11T00:00:21.666Z,77.89
2018-02-11T00:02:49.351Z,78.46
2018-02-11T00:05:16.952Z,78.60
2018-02-11T00:07:44.635Z,79.15
2018-02-11T00:10:12.332Z,78.69
2018-02-11T00:12:40.034Z,78.83
2018-02-11T00:15:07.765Z,78.80
2018-02-11T00:17:35.361Z,79.13
2018-02-11T00:20:03.047Z,79.11
2018-02-11T00:22:30.805Z,79.32
2018-02-11T00:24:58.551Z,78.97
2018-02-11T00:27:26.142Z,79.27
2018-02-11T00:29:53.843Z,79.03
2018-02-11T00:32:21.550Z,79.16
2018-02-11T00:34:49.252Z,79.23
2018-02-11T00:40:19.406Z,81.43
2018-02-11T00:42:47.075Z,82.68
2018-02-11T00:45:14.770Z,84.52
2018-02-11T00:47:42.522Z,87.32
2018-02-11T00:50:10.248Z,90.00
2018-02-11T00:52:38.898Z,91.93
2018-02-11T00:55:06.624Z,93.75
2018-02-11T00:57:34.348Z,94.78
2018-02-11T01:00:02.151Z,95.41
2018-02-11T01:02:29.830Z,95.96
2018-02-11T01:04:57.549Z,96.49
2018-02-11T01:07:25.217Z,97.14
2018-02-11T01:09:52.969Z,97.81
2018-02-11T01:12:20.669Z,98.65
2018-02-11T01:14:48.426Z,99.43
2018-02-11T01:17:16.110Z,99.90
2018-02-11T01:19:43.862Z,100.00
2018-02-11T01:22:11.548Z,100.00
2018-02-11T01:24:39.293Z,100.00
2018-02-11T01:27:07.017Z,100.00
2018-02-11T01:29:34.734Z,100.00
2018-02-11T01:32:02.466Z,100.00
2018-02-11T01:34:30.152Z,100.00
2018-02-11T01:36:57.826Z,100.00
2018-02-11T01:39:25.541Z,100.00
2018-02-11T01:41:53.232Z,100.00
2018-02-11T01:44:20.950Z,100.00
2018-02-11T01:46:48.624Z,100.00
2018-02-11T01:49:16.326Z,100.00
2018-02-11T01:51:44.014Z,100.00
2018-02-11T01:54:11.727Z,100.00
2018-02-11T01:56:39.439Z,100.00
2018-02-11T01:59:07.618Z,100.00
2018-02-11T02:01:35.315Z,100.00
2018-02-11T02:04:03.047Z,100.00
2018-02-11T02:06:30.737Z,100.00
2018-02-11T02:08:58.450Z,100.00
2018-02-11T02:11:26.127Z,100.00
2018-02-11T02:13:53.834Z,100.00
2018-02-11T02:16:21.611Z,100.00
2018-02-11T02:18:49.326Z,100.00
2018-02-11T02:21:16.983Z,100.00
2018-02-11T02:23:44.716Z,100.00
2018-02-11T02:26:12.390Z,100.00
2018-02-11T02:28:40.138Z,100.00
2018-02-11T02:31:07.801Z,100.00
2018-02-11T02:33:35.516Z,100.00
2018-02-11T02:36:03.193Z,100.00
2018-02-11T02:38:31.012Z,100.00
2018-02-11T02:40:58.681Z,100.00
2018-02-11T02:43:26.444Z,100.00
2018-02-11T02:45:54.115Z,100.00
2018-02-11T02:48:21.826Z,100.00
2018-02-11T02:50:49.502Z,100.00
2018-02-11T02:53:17.208Z,100.00
2018-02-11T02:55:44.888Z,100.00
2018-02-11T02:58:12.607Z,100.00
2018-02-11T03:00:40.274Z,100.00
2018-02-11T03:03:08.011Z,100.00
2018-02-11T03:05:35.806Z,100.00
2018-02-11T03:08:03.577Z,100.00
2018-02-11T03:10:31.255Z,100.00
2018-02-11T03:12:59.009Z,100.00
2018-02-11T03:15:26.702Z,100.00
2018-02-11T03:17:54.467Z,100.00
2018-02-11T03:20:22.189Z,100.00
2018-02-11T03:22:49.898Z,100.00
2018-02-11T03:25:17.621Z,100.00
2018-02-11T03:27:45.312Z,100.00
2018-02-11T03:30:13.006Z,100.00
2018-02-11T03:32:40.741Z,100.00
2018-02-11T03:35:08.399Z,100.00
2018-02-11T03:37:36.114Z,100.00
2018-02-11T03:40:03.804Z,100.00
2018-02-11T03:42:31.537Z,100.00
2018-02-11T03:44:59.207Z,100.00
2018-02-11T03:47:26.966Z,100.00
2018-02-11T03:49:54.652Z,100.00
2018-02-11T03:52:22.358Z,100.00
2018-02-11T03:54:50.058Z,100.00
2018-02-11T03:57:17.879Z,100.00
2018-02-11T03:59:45.612Z,100.00
2018-02-11T04:02:13.318Z,100.00
2018-02-11T04:04:41.045Z,100.00
2018-02-11T04:07:08.776Z,100.00
2018-02-11T04:09:36.457Z,100.00
2018-02-11T04:12:04.182Z,100.00
2018-02-11T04:14:31.848Z,100.00
2018-02-11T04:16:59.537Z,100.00
2018-02-11T04:19:27.227Z,100.00
2018-02-11T04:21:54.966Z,100.00
2018-02-11T04:24:22.674Z,100.00
2018-02-11T04:26:50.405Z,100.00
2018-02-11T04:29:18.229Z,100.00
2018-02-11T04:31:45.914Z,100.00
2018-02-11T04:34:13.626Z,100.00
2018-02-11T04:36:41.355Z,100.00
2018-02-11T04:39:09.054Z,100.00
2018-02-11T04:41:36.729Z,100.00
2018-02-11T04:44:04.510Z,100.00
2018-02-11T04:46:32.182Z,100.00
2018-02-11T04:48:59.908Z,100.00
2018-02-11T04:51:27.578Z,100.00
2018-02-11T04:53:55.326Z,100.00
2018-02-11T04:56:22.990Z,100.00
2018-02-11T04:58:50.721Z,100.00
2018-02-11T05:01:18.390Z,100.00
2018-02-11T05:03:46.090Z,100.00
2018-02-11T05:06:13.754Z,100.00
2018-02-11T05:08:41.461Z,100.00
2018-02-11T05:11:09.144Z,100.00
2018-02-11T05:13:36.861Z,100.00
2018-02-11T05:16:04.538Z,100.00
2018-02-11T05:18:32.270Z,100.00
2018-02-11T05:20:59.964Z,100.00
2018-02-11T05:23:27.659Z,100.00
2018-02-11T05:25:55.385Z,100.00
2018-02-11T05:28:23.083Z,100.00
2018-02-11T05:30:50.815Z,100.00
2018-02-11T05:33:18.530Z,100.00
2018-02-11T05:35:46.253Z,100.00
2018-02-11T05:38:13.948Z,100.00
2018-02-11T05:40:41.625Z,100.00
2018-02-11T05:43:09.427Z,100.00
2018-02-11T05:45:37.111Z,100.00
2018-02-11T05:48:04.826Z,100.00
2018-02-11T05:50:32.507Z,100.00
2018-02-11T05:53:00.211Z,100.00
2018-02-11T05:55:27.883Z,100.00
2018-02-11T05:57:55.590Z,100.00
2018-02-11T06:00:23.342Z,100.00
2018-02-11T06:02:51.056Z,100.00
2018-02-11T06:05:18.734Z,100.00
2018-02-11T06:07:46.415Z,100.00
2018-02-11T06:10:14.192Z,100.00
2018-02-11T06:12:41.866Z,100.00
2018-02-11T06:15:09.578Z,100.00
2018-02-11T06:17:37.253Z,100.00
2018-02-11T06:20:04.961Z,100.00
2018-02-11T06:22:32.637Z,100.00
2018-02-11T06:25:00.340Z,100.00
2018-02-11T06:27:28.054Z,100.00
2018-02-11T06:29:55.762Z,100.00
2018-02-11T06:32:23.490Z,100.00
2018-02-11T06:34:51.281Z,100.00
2018-02-11T06:37:18.959Z,100.00
2018-02-11T06:39:46.660Z,100.00
2018-02-11T06:42:14.344Z,100.00
2018-02-11T06:44:42.039Z,100.00
2018-02-11T06:47:09.726Z,100.00
2018-02-11T06:49:37.546Z,100.00
2018-02-11T06:52:05.219Z,100.00
2018-02-11T06:54:32.976Z,100.00
2018-02-11T06:57:00.638Z,100.00
2018-02-11T06:59:28.334Z,100.00
2018-02-11T07:01:56.047Z,100.00
2018-02-11T07:04:23.758Z,100.00
2018-02-11T07:06:51.497Z,100.00
2018-02-11T07:09:19.192Z,100.00
2018-02-11T07:11:46.871Z,99.86
2018-02-11T07:14:14.631Z,99.47
2018-02-11T07:16:42.314Z,98.10
2018-02-11T07:19:10.028Z,96.77
2018-02-11T07:21:37.695Z,95.62
2018-02-11T07:24:05.379Z,95.21
2018-02-11T07:26:32.971Z,95.07
2018-02-11T07:29:00.725Z,94.81
2018-02-11T07:31:28.405Z,94.21
2018-02-11T07:33:56.028Z,94.04
2018-02-11T07:36:23.730Z,94.53
2018-02-11T07:38:51.327Z,94.26
2018-02-11T07:41:19.074Z,94.06
2018-02-11T07:43:46.758Z,94.38
2018-02-11T07:46:14.427Z,94.08
2018-02-11T07:48:42.187Z,93.56
2018-02-11T07:51:09.816Z,93.54
2018-02-11T07:53:37.430Z,93.77
2018-02-11T07:56:05.035Z,93.60
2018-02-11T07:58:32.649Z,92.79
2018-02-11T08:01:00.306Z,93.16
2018-02-11T08:03:27.974Z,93.51
2018-02-11T08:05:55.594Z,93.90
2018-02-11T08:08:23.210Z,94.08
2018-02-11T08:10:50.839Z,94.02
2018-02-11T08:13:18.486Z,93.84
2018-02-11T08:15:46.084Z,94.17
2018-02-11T08:18:13.762Z,93.87
2018-02-11T08:20:41.362Z,93.72
2018-02-11T08:23:09.026Z,93.74
2018-02-11T08:25:36.616Z,93.96
2018-02-11T08:28:04.265Z,93.73
2018-02-11T08:30:31.874Z,93.54
2018-02-11T08:32:59.659Z,94.11
2018-02-11T08:35:27.282Z,94.01
2018-02-11T08:37:54.914Z,94.58
2018-02-11T08:40:22.566Z,94.25
2018-02-11T08:42:50.234Z,94.78
2018-02-11T08:45:17.901Z,95.30
2018-02-11T08:47:45.496Z,95.79
2018-02-11T08:50:13.102Z,95.96
2018-02-11T08:52:40.726Z,96.26
2018-02-11T08:55:08.395Z,96.60
2018-02-11T08:57:36.142Z,96.69
2018-02-11T09:00:03.805Z,97.15
2018-02-11T09:02:31.570Z,97.43
2018-02-11T09:04:59.206Z,97.79
2018-02-11T09:07:26.797Z,97.83
2018-02-11T09:09:54.444Z,97.59
2018-02-11T09:12:22.038Z,97.71
2018-02-11T09:14:49.705Z,97.87
2018-02-11T09:17:17.348Z,97.95
2018-02-11T09:19:44.973Z,98.06
2018-02-11T09:22:12.576Z,98.24
2018-02-11T09:24:40.250Z,98.58
2018-02-11T09:27:07.862Z,98.65
2018-02-11T09:29:35.507Z,98.69
2018-02-11T09:32:03.519Z,98.85
2018-02-11T09:34:31.184Z,99.17
2018-02-11T10:12:02.990Z,97.93
2018-02-11T10:17:28.843Z,95.94
2018-02-11T10:28:07.376Z,96.13
2018-02-11T10:30:38.352Z,97.10
2018-02-11T10:33:07.375Z,98.67
2018-02-11T10:38:20.482Z,100.00
2018-02-11T10:40:49.394Z,100.00
2018-02-11T10:43:17.469Z,100.00
2018-02-11T10:46:07.059Z,100.00
2018-02-11T11:08:28.095Z,99.80
2018-02-11T11:10:55.781Z,99.09
2018-02-11T11:13:23.450Z,97.73
2018-02-11T11:15:51.050Z,97.12
2018-02-11T11:18:18.740Z,95.50
2018-02-11T11:20:46.484Z,94.48
2018-02-11T11:23:14.217Z,93.51
2018-02-11T11:25:42.255Z,93.07
2018-02-11T11:28:09.919Z,92.95
2018-02-11T11:30:37.620Z,92.96
2018-02-11T11:33:05.294Z,92.88
2018-02-11T11:35:32.891Z,92.12
2018-02-11T11:38:00.672Z,91.80
2018-02-11T11:40:28.295Z,91.55
2018-02-11T11:42:55.940Z,90.17
2018-02-11T11:45:23.554Z,90.66
2018-02-11T11:47:51.224Z,88.27
2018-02-11T11:50:18.852Z,88.42
2018-02-11T11:52:46.533Z,88.98
2018-02-11T11:55:14.190Z,87.40
2018-02-11T11:57:41.817Z,84.54
2018-02-11T12:00:09.470Z,84.12
2018-02-11T12:02:37.152Z,85.37
2018-02-11T12:05:04.781Z,84.41
2018-02-11T12:07:32.438Z,83.85
2018-02-11T12:10:00.037Z,84.06
2018-02-11T12:12:27.722Z,83.05
2018-02-11T12:14:55.423Z,82.76
2018-02-11T12:17:23.591Z,81.98
2018-02-11T12:19:51.206Z,81.29
2018-02-11T12:22:18.906Z,81.87
2018-02-11T12:24:47.412Z,82.02
2018-02-11T12:27:15.220Z,81.80
2018-02-11T12:29:42.906Z,82.93
2018-02-11T12:34:51.110Z,82.74
2018-02-11T12:37:18.757Z,82.62
2018-02-11T12:39:46.389Z,83.18
2018-02-11T12:42:14.012Z,83.08
2018-02-11T12:44:41.650Z,82.93
2018-02-11T12:47:09.383Z,82.87
2018-02-11T12:49:37.083Z,83.47
2018-02-11T12:52:04.728Z,83.85
2018-02-11T12:54:32.386Z,83.90
2018-02-11T12:57:00.191Z,84.29
2018-02-11T12:59:27.836Z,83.53
2018-02-11T13:01:55.473Z,83.12
2018-02-11T13:04:23.093Z,84.26
2018-02-11T13:06:50.723Z,83.29
2018-02-11T13:09:18.340Z,84.17
2018-02-11T13:11:45.974Z,85.50
2018-02-11T13:14:13.659Z,88.73
2018-02-11T13:16:41.296Z,90.17
2018-02-11T13:19:08.918Z,90.32
2018-02-11T13:21:36.582Z,89.10
2018-02-11T13:24:04.243Z,89.50
2018-02-11T13:26:31.938Z,87.52
2018-02-11T13:28:59.698Z,86.68
2018-02-11T13:31:27.331Z,86.70
2018-02-11T13:33:55.768Z,85.20
2018-02-11T13:36:23.512Z,84.52
2018-02-11T13:38:51.280Z,83.59
2018-02-11T13:41:19.027Z,83.60
2018-02-11T13:43:46.647Z,83.00
2018-02-11T13:46:14.289Z,82.55
2018-02-11T13:48:41.887Z,83.41
2018-02-11T13:51:09.565Z,83.13
2018-02-11T13:53:37.167Z,83.06
2018-02-11T13:56:04.964Z,82.84
2018-02-11T13:58:32.627Z,83.54
2018-02-11T14:01:00.313Z,83.16
2018-02-11T14:03:27.974Z,83.51
2018-02-11T14:05:55.710Z,84.18
2018-02-11T14:08:23.344Z,84.94
2018-02-11T14:10:50.996Z,86.56
2018-02-11T14:13:18.658Z,85.29
2018-02-11T14:15:46.298Z,85.60
2018-02-11T14:18:13.965Z,87.45
2018-02-11T14:20:41.605Z,88.93
2018-02-11T14:23:09.233Z,89.37
2018-02-11T14:25:36.928Z,90.29
2018-02-11T14:28:04.565Z,90.15
2018-02-11T14:30:32.210Z,90.70
2018-02-11T14:32:59.818Z,91.15
2018-02-11T14:35:27.562Z,90.99
2018-02-11T14:37:55.217Z,89.79
2018-02-11T14:40:22.990Z,89.66
2018-02-11T14:42:50.637Z,90.19
2018-02-11T14:45:18.291Z,90.00
2018-02-11T14:47:45.898Z,89.70
2018-02-11T14:50:13.550Z,87.44
2018-02-11T14:52:41.281Z,86.15
2018-02-11T14:55:08.928Z,87.49
2018-02-11T14:57:36.592Z,87.45
2018-02-11T15:00:04.210Z,88.34
2018-02-11T15:02:31.892Z,89.01
2018-02-11T15:04:59.658Z,88.72
2018-02-11T15:07:27.307Z,88.35
2018-02-11T15:09:55.123Z,88.38
2018-02-11T15:12:22.794Z,88.92
2018-02-11T15:14:50.428Z,88.56
2018-02-11T15:17:18.091Z,88.71
2018-02-11T15:19:45.777Z,88.37
2018-02-11T15:22:13.492Z,88.52
2018-02-11T15:24:41.132Z,87.56
2018-02-11T15:27:08.868Z,87.68
2018-02-11T15:29:36.483Z,87.27
2018-02-11T15:32:04.322Z,90.93
2018-02-11T15:34:32.080Z,86.14
2018-02-11T15:36:59.730Z,85.29
2018-02-11T15:39:27.580Z,85.40
2018-02-11T15:41:55.256Z,83.44
2018-02-11T15:44:22.920Z,81.46
2018-02-11T15:46:50.641Z,79.97
2018-02-11T15:49:18.291Z,79.20
2018-02-11T15:51:45.992Z,79.04
2018-02-11T15:54:13.612Z,78.37
2018-02-11T15:56:41.255Z,77.70
2018-02-11T15:59:08.944Z,77.32
2018-02-11T16:01:36.607Z,77.55
2018-02-11T16:04:04.225Z,77.99
2018-02-11T16:06:31.877Z,77.91
2018-02-11T16:08:59.498Z,78.26
2018-02-11T16:11:27.116Z,78.51
2018-02-11T16:13:54.755Z,78.45
2018-02-11T16:16:22.424Z,78.49
2018-02-11T16:18:50.060Z,78.27
2018-02-11T16:21:17.684Z,79.04
2018-02-11T16:23:45.316Z,79.43
2018-02-11T16:26:12.944Z,80.14
2018-02-11T16:28:40.587Z,80.38
2018-02-11T16:31:08.199Z,80.36
2018-02-11T16:33:36.631Z,80.08
2018-02-11T16:36:04.231Z,79.14
2018-02-11T16:38:31.905Z,79.06
2018-02-11T16:40:59.554Z,79.75
2018-02-11T16:43:27.321Z,79.68
2018-02-11T16:45:54.955Z,79.65
2018-02-11T16:48:22.609Z,79.80
2018-02-11T16:50:50.243Z,80.28
2018-02-11T16:53:17.883Z,80.32
2018-02-11T16:55:45.624Z,79.74
2018-02-11T16:58:13.335Z,79.78
2018-02-11T17:00:40.937Z,79.63
2018-02-11T17:03:09.288Z,79.68
2018-02-11T17:05:37.001Z,80.06
2018-02-11T17:08:04.639Z,80.12
2018-02-11T17:10:32.263Z,80.27
2018-02-11T17:12:59.936Z,80.34
2018-02-11T17:15:27.533Z,80.61
2018-02-11T17:17:55.173Z,80.61
2018-02-11T17:20:22.869Z,80.65
2018-02-11T17:22:50.576Z,80.79
2018-02-11T17:25:18.159Z,80.91
2018-02-11T17:27:45.842Z,80.82
2018-02-11T17:30:13.480Z,80.91
2018-02-11T17:32:41.100Z,80.65
2018-02-11T17:35:08.703Z,80.08
2018-02-11T17:37:36.335Z,80.44
2018-02-11T17:40:03.948Z,80.77
2018-02-11T17:42:31.665Z,80.65
2018-02-11T17:44:59.361Z,80.12
2018-02-11T17:47:27.007Z,80.22
2018-02-11T17:49:54.614Z,79.83
2018-02-11T17:52:22.866Z,79.25
2018-02-11T17:54:50.612Z,79.26
2018-02-11T17:57:18.276Z,78.65
2018-02-11T17:59:45.900Z,78.23
2018-02-11T18:02:13.659Z,77.81
2018-02-11T18:04:42.127Z,77.64
2018-02-11T18:07:09.776Z,77.53
2018-02-11T18:09:37.439Z,77.73
2018-02-11T18:12:05.107Z,77.50
2018-02-11T18:14:32.707Z,77.03
2018-02-11T18:17:00.345Z,77.11
2018-02-11T18:19:27.965Z,77.26
2018-02-11T18:21:55.688Z,77.72
2018-02-11T18:24:23.295Z,78.08
2018-02-11T18:26:50.924Z,78.33
2018-02-11T18:29:18.547Z,78.85
2018-02-11T18:31:46.179Z,79.39
2018-02-11T18:34:13.845Z,80.06
2018-02-11T18:36:41.516Z,81.13
2018-02-11T18:39:09.140Z,81.72
2018-02-11T18:41:36.757Z,82.37
2018-02-11T18:44:04.430Z,82.72
2018-02-11T18:46:32.053Z,83.22
2018-02-11T18:48:59.645Z,83.80
2018-02-11T18:51:27.304Z,84.71
2018-02-11T18:53:54.904Z,85.39
2018-02-11T18:56:22.555Z,85.38
2018-02-11T18:58:50.184Z,85.10
2018-02-11T19:01:17.823Z,84.85
2018-02-11T19:03:45.416Z,84.37
2018-02-11T19:06:13.096Z,84.27
2018-02-11T19:08:40.699Z,84.55
2018-02-11T19:11:08.339Z,84.54
2018-02-11T19:13:35.976Z,84.66
2018-02-11T19:16:03.606Z,85.10
2018-02-11T19:18:31.316Z,85.36
2018-02-11T19:20:58.915Z,85.99
2018-02-11T19:23:26.545Z,86.69
2018-02-11T19:25:54.216Z,87.16
2018-02-11T19:28:21.843Z,87.57
2018-02-11T19:30:49.454Z,87.91
2018-02-11T19:33:17.110Z,88.22
2018-02-11T19:35:44.780Z,88.31
2018-02-11T19:38:12.426Z,88.05
2018-02-11T19:40:40.081Z,87.78
2018-02-11T19:43:07.742Z,87.11
2018-02-11T19:45:35.356Z,87.27
2018-02-11T19:48:03.056Z,87.37
2018-02-11T19:50:30.680Z,87.46
2018-02-11T19:52:58.487Z,87.44
2018-02-11T19:55:26.107Z,87.44
2018-02-11T19:57:53.878Z,87.35
2018-02-11T20:00:21.610Z,87.10
2018-02-11T20:02:49.297Z,86.77
2018-02-11T20:05:16.966Z,86.29
2018-02-11T20:07:44.642Z,86.04
2018-02-11T20:10:12.323Z,86.22
2018-02-11T20:12:39.996Z,86.38
2018-02-11T20:15:07.714Z,86.80
2018-02-11T20:17:35.419Z,87.18
2018-02-11T20:20:03.182Z,87.90
2018-02-11T20:22:30.916Z,88.25
2018-02-11T20:24:58.502Z,88.74
2018-02-11T20:27:26.116Z,89.11
2018-02-11T20:29:53.783Z,89.40
2018-02-11T20:32:21.404Z,89.27
2018-02-11T20:34:49.027Z,89.27
2018-02-11T20:37:16.692Z,89.37
2018-02-11T20:39:44.331Z,89.44
2018-02-11T20:42:11.991Z,89.67
2018-02-11T20:44:39.710Z,90.08
2018-02-11T20:47:07.310Z,90.21
2018-02-11T20:49:34.992Z,90.20
2018-02-11T20:52:02.680Z,90.10
2018-02-11T20:54:30.350Z,90.04
2018-02-11T20:56:58.026Z,90.01
2018-02-11T20:59:25.689Z,89.94
2018-02-11T21:01:53.406Z,89.63
2018-02-11T21:04:21.123Z,89.42
2018-02-11T21:06:48.747Z,89.58
2018-02-11T21:09:16.407Z,89.27
2018-02-11T21:11:44.041Z,89.20
2018-02-11T21:14:11.764Z,88.80
2018-02-11T21:16:39.414Z,88.78
2018-02-11T21:19:07.111Z,88.29
2018-02-11T21:21:34.730Z,88.46
2018-02-11T21:24:02.452Z,88.44
2018-02-11T21:26:30.119Z,88.61
2018-02-11T21:28:57.863Z,88.57
2018-02-11T21:31:25.456Z,88.36
2018-02-11T21:33:53.116Z,88.10
2018-02-11T21:36:20.739Z,88.19
2018-02-11T21:38:48.462Z,88.26
2018-02-11T21:41:16.078Z,88.24
2018-02-11T21:43:43.700Z,88.48
2018-02-11T21:46:11.407Z,88.31
2018-02-11T21:48:39.045Z,88.37
2018-02-11T21:51:06.736Z,88.46
2018-02-11T21:53:34.381Z,88.47
2018-02-11T21:56:02.027Z,88.45
2018-02-11T21:58:29.804Z,88.82
2018-02-11T22:00:57.462Z,89.01
2018-02-11T22:03:25.107Z,90.06
2018-02-11T22:05:53.015Z,90.84
2018-02-11T22:08:20.700Z,92.63
2018-02-11T22:10:48.353Z,93.87
2018-02-11T22:13:15.990Z,94.65
2018-02-11T22:15:43.660Z,95.21
2018-02-11T22:18:11.348Z,95.40
2018-02-11T22:20:38.975Z,95.59
2018-02-11T22:23:06.719Z,95.77
2018-02-11T22:25:34.470Z,95.87
2018-02-11T22:28:02.069Z,96.11
2018-02-11T22:30:29.726Z,96.15
2018-02-11T22:32:57.403Z,96.10
2018-02-11T22:35:25.058Z,95.91
2018-02-11T22:37:52.760Z,95.58
2018-02-11T22:40:20.557Z,95.16
2018-02-11T22:42:48.175Z,94.95
2018-02-11T22:45:15.822Z,94.33
2018-02-11T22:47:43.591Z,94.33
2018-02-11T22:50:11.234Z,94.29
2018-02-11T22:52:38.874Z,93.63
2018-02-11T22:55:06.522Z,92.82
2018-02-11T22:57:34.138Z,91.84
2018-02-11T23:00:01.751Z,91.42
2018-02-11T23:02:29.480Z,91.41
2018-02-11T23:04:57.100Z,91.11
2018-02-11T23:07:24.822Z,90.69
2018-02-11T23:09:52.449Z,90.49
2018-02-11T23:12:20.095Z,90.63
2018-02-11T23:14:47.767Z,90.88
2018-02-11T23:17:15.397Z,91.03
2018-02-11T23:19:50.795Z,90.75
2018-02-11T23:22:18.461Z,90.34
2018-02-11T23:24:46.057Z,90.42
2018-02-11T23:27:13.693Z,90.44
2018-02-11T23:29:41.302Z,90.37
2018-02-11T23:32:09.037Z,90.43
2018-02-11T23:34:36.686Z,90.57
2018-02-11T23:37:04.338Z,90.65
2018-02-11T23:39:31.963Z,90.67
2018-02-11T23:41:59.635Z,90.72
2018-02-11T23:44:27.242Z,90.49
2018-02-11T23:46:54.887Z,90.53
2018-02-11T23:49:22.607Z,90.76
2018-02-11T23:51:50.302Z,90.96
2018-02-11T23:54:17.947Z,91.14
2018-02-11T23:56:45.663Z,91.51
2018-02-11T23:59:13.339Z,91.74
